sensor_id;sensor_type;location;lat;lon;timestamp;pressure;altitude;pressure_sealevel;temperature;humidity
78845;BME280;68195;50.854;2.860;2023-09-08T00:02:27;101447.19;;;20.92;100.00
78845;BME280;68195;50.854;2.860;2023-09-08T00:04:57;101492.00;;;21.18;100.00
78845;BME280;68195;50.854;2.860;2023-09-08T00:07:28;101494.06;;;21.14;100.00
78845;BME280;68195;50.854;2.860;2023-09-08T00:09:56;101474.03;;;21.10;100.00
78845;BME280;68195;50.854;2.860;2023-09-08T00:12:24;101438.50;;;20.90;100.00
78845;BME280;68195;50.854;2.860;2023-09-08T00:14:49;101491.88;;;21.19;100.00
78845;BME280;68195;50.854;2.860;2023-09-08T00:17:17;101500.25;;;21.15;100.00
78845;BME280;68195;50.854;2.860;2023-09-08T00:19:47;101488.41;;;21.07;100.00
78845;BME280;68195;50.854;2.860;2023-09-08T00:22:12;101500.75;;;21.08;100.00
78845;BME280;68195;50.854;2.860;2023-09-08T00:24:38;101474.84;;;20.89;100.00
78845;BME280;68195;50.854;2.860;2023-09-08T00:27:05;101494.38;;;21.00;100.00
78845;BME280;68195;50.854;2.860;2023-09-08T00:29:33;101502.00;;;20.93;100.00
78845;BME280;68195;50.854;2.860;2023-09-08T00:31:58;101480.44;;;20.86;100.00
78845;BME280;68195;50.854;2.860;2023-09-08T00:34:26;101499.69;;;21.00;100.00
78845;BME280;68195;50.854;2.860;2023-09-08T00:36:53;101495.31;;;20.99;100.00
78845;BME280;68195;50.854;2.860;2023-09-08T00:39:21;101483.66;;;20.90;100.00
78845;BME280;68195;50.854;2.860;2023-09-08T00:41:46;101491.13;;;20.96;100.00
78845;BME280;68195;50.854;2.860;2023-09-08T00:44:17;101485.47;;;20.89;100.00
78845;BME280;68195;50.854;2.860;2023-09-08T00:46:43;101426.06;;;20.47;100.00
78845;BME280;68195;50.854;2.860;2023-09-08T00:49:08;101485.34;;;20.91;100.00
78845;BME280;68195;50.854;2.860;2023-09-08T00:51:36;101491.97;;;20.97;100.00
78845;BME280;68195;50.854;2.860;2023-09-08T00:54:05;101482.06;;;20.99;100.00
78845;BME280;68195;50.854;2.860;2023-09-08T00:56:31;101465.22;;;20.88;100.00
78845;BME280;68195;50.854;2.860;2023-09-08T00:58:59;101433.75;;;20.73;100.00
78845;BME280;68195;50.854;2.860;2023-09-08T01:01:27;101431.69;;;20.76;100.00
78845;BME280;68195;50.854;2.860;2023-09-08T01:03:52;101445.84;;;20.98;100.00
78845;BME280;68195;50.854;2.860;2023-09-08T01:06:20;101469.44;;;21.12;100.00
78845;BME280;68195;50.854;2.860;2023-09-08T01:08:49;101461.03;;;21.07;100.00
78845;BME280;68195;50.854;2.860;2023-09-08T01:11:19;101455.44;;;21.10;100.00
78845;BME280;68195;50.854;2.860;2023-09-08T01:13:49;101407.41;;;20.81;100.00
78845;BME280;68195;50.854;2.860;2023-09-08T01:16:19;101440.66;;;20.96;100.00
78845;BME280;68195;50.854;2.860;2023-09-08T01:18:48;101430.69;;;20.88;100.00
78845;BME280;68195;50.854;2.860;2023-09-08T01:26:50;101463.06;;;21.15;100.00
78845;BME280;68195;50.854;2.860;2023-09-08T01:29:16;101417.16;;;20.92;100.00
78845;BME280;68195;50.854;2.860;2023-09-08T01:31:42;101461.94;;;21.17;100.00
78845;BME280;68195;50.854;2.860;2023-09-08T01:34:11;101465.56;;;21.16;100.00
78845;BME280;68195;50.854;2.860;2023-09-08T01:36:39;101465.56;;;21.16;100.00
78845;BME280;68195;50.854;2.860;2023-09-08T01:39:10;101471.03;;;21.03;100.00
78845;BME280;68195;50.854;2.860;2023-09-08T01:41:35;101408.97;;;20.83;100.00
78845;BME280;68195;50.854;2.860;2023-09-08T01:44:01;101453.25;;;21.15;100.00
78845;BME280;68195;50.854;2.860;2023-09-08T01:46:33;101446.63;;;21.09;100.00
78845;BME280;68195;50.854;2.860;2023-09-08T01:48:58;101455.72;;;21.07;100.00
78845;BME280;68195;50.854;2.860;2023-09-08T01:51:26;101407.94;;;20.75;100.00
78845;BME280;68195;50.854;2.860;2023-09-08T01:53:52;101432.75;;;20.85;100.00
78845;BME280;68195;50.854;2.860;2023-09-08T01:56:21;101455.88;;;20.94;100.00
78845;BME280;68195;50.854;2.860;2023-09-08T01:58:50;101445.19;;;20.84;100.00
78845;BME280;68195;50.854;2.860;2023-09-08T02:01:16;101463.72;;;20.96;100.00
78845;BME280;68195;50.854;2.860;2023-09-08T02:03:41;101439.88;;;20.84;100.00
78845;BME280;68195;50.854;2.860;2023-09-08T02:06:06;101455.88;;;20.94;100.00
78845;BME280;68195;50.854;2.860;2023-09-08T02:08:32;101401.34;;;20.58;100.00
78845;BME280;68195;50.854;2.860;2023-09-08T02:11:01;101429.16;;;20.75;100.00
78845;BME280;68195;50.854;2.860;2023-09-08T02:13:27;101409.91;;;20.50;100.00
78845;BME280;68195;50.854;2.860;2023-09-08T02:15:54;101448.13;;;20.70;100.00
78845;BME280;68195;50.854;2.860;2023-09-08T02:18:20;101377.53;;;20.24;100.00
78845;BME280;68195;50.854;2.860;2023-09-08T02:20:47;101385.84;;;20.31;100.00
78845;BME280;68195;50.854;2.860;2023-09-08T02:23:13;101411.25;;;20.44;100.00
78845;BME280;68195;50.854;2.860;2023-09-08T02:25:38;101407.63;;;20.34;100.00
78845;BME280;68195;50.854;2.860;2023-09-08T02:28:07;101461.41;;;20.70;100.00
78845;BME280;68195;50.854;2.860;2023-09-08T02:30:32;101464.06;;;20.70;100.00
78845;BME280;68195;50.854;2.860;2023-09-08T02:33:00;101457.19;;;20.67;100.00
78845;BME280;68195;50.854;2.860;2023-09-08T02:35:36;101462.13;;;20.72;100.00
78845;BME280;68195;50.854;2.860;2023-09-08T02:38:01;101473.56;;;20.73;100.00
78845;BME280;68195;50.854;2.860;2023-09-08T02:40:27;101471.63;;;20.75;100.00
78845;BME280;68195;50.854;2.860;2023-09-08T02:42:52;101471.25;;;20.79;100.00
78845;BME280;68195;50.854;2.860;2023-09-08T02:45:20;101391.88;;;20.33;100.00
78845;BME280;68195;50.854;2.860;2023-09-08T02:47:48;101409.19;;;20.48;100.00
78845;BME280;68195;50.854;2.860;2023-09-08T02:50:13;101438.00;;;20.64;100.00
78845;BME280;68195;50.854;2.860;2023-09-08T02:52:39;101432.97;;;20.61;100.00
78845;BME280;68195;50.854;2.860;2023-09-08T02:55:04;101470.41;;;20.79;100.00
78845;BME280;68195;50.854;2.860;2023-09-08T02:57:32;101439.94;;;20.62;100.00
78845;BME280;68195;50.854;2.860;2023-09-08T03:00:02;101422.09;;;20.53;100.00
78845;BME280;68195;50.854;2.860;2023-09-08T03:02:30;101443.81;;;20.58;100.00
78845;BME280;68195;50.854;2.860;2023-09-08T03:04:59;101478.16;;;20.71;100.00
78845;BME280;68195;50.854;2.860;2023-09-08T03:07:28;101480.09;;;20.68;100.00
78845;BME280;68195;50.854;2.860;2023-09-08T03:09:53;101422.97;;;20.31;100.00
78845;BME280;68195;50.854;2.860;2023-09-08T03:12:21;101430.31;;;20.38;100.00
78845;BME280;68195;50.854;2.860;2023-09-08T03:14:48;101406.72;;;20.13;100.00
78845;BME280;68195;50.854;2.860;2023-09-08T03:17:14;101473.34;;;20.53;100.00
78845;BME280;68195;50.854;2.860;2023-09-08T03:19:42;101469.13;;;20.51;100.00
78845;BME280;68195;50.854;2.860;2023-09-08T03:22:14;101423.84;;;20.20;100.00
78845;BME280;68195;50.854;2.860;2023-09-08T03:24:42;101404.56;;;20.06;100.00
78845;BME280;68195;50.854;2.860;2023-09-08T03:27:07;101403.84;;;20.04;100.00
78845;BME280;68195;50.854;2.860;2023-09-08T03:29:35;101442.75;;;20.26;100.00
78845;BME280;68195;50.854;2.860;2023-09-08T03:32:01;101461.19;;;20.39;100.00
78845;BME280;68195;50.854;2.860;2023-09-08T03:34:29;101460.94;;;20.42;100.00
78845;BME280;68195;50.854;2.860;2023-09-08T03:36:54;101400.84;;;20.09;100.00
78845;BME280;68195;50.854;2.860;2023-09-08T03:39:22;101405.53;;;20.05;100.00
78845;BME280;68195;50.854;2.860;2023-09-08T03:41:48;101426.59;;;20.18;100.00
78845;BME280;68195;50.854;2.860;2023-09-08T03:44:15;101443.84;;;20.35;100.00
78845;BME280;68195;50.854;2.860;2023-09-08T03:46:45;101437.91;;;20.32;100.00
78845;BME280;68195;50.854;2.860;2023-09-08T03:49:13;101427.34;;;19.98;100.00
78845;BME280;68195;50.854;2.860;2023-09-08T03:51:39;101445.91;;;20.20;100.00
78845;BME280;68195;50.854;2.860;2023-09-08T03:54:07;101424.31;;;20.14;100.00
78845;BME280;68195;50.854;2.860;2023-09-08T03:56:32;101441.69;;;20.18;100.00
78845;BME280;68195;50.854;2.860;2023-09-08T03:59:03;101454.44;;;20.35;100.00
78845;BME280;68195;50.854;2.860;2023-09-08T04:01:28;101453.47;;;20.36;100.00
78845;BME280;68195;50.854;2.860;2023-09-08T04:03:54;101407.34;;;20.05;100.00
78845;BME280;68195;50.854;2.860;2023-09-08T04:06:21;101417.56;;;20.10;100.00
78845;BME280;68195;50.854;2.860;2023-09-08T04:08:52;101452.75;;;20.34;100.00
78845;BME280;68195;50.854;2.860;2023-09-08T04:11:20;101407.47;;;19.81;100.00
78845;BME280;68195;50.854;2.860;2023-09-08T04:13:45;101457.47;;;20.08;100.00
78845;BME280;68195;50.854;2.860;2023-09-08T04:16:11;101454.34;;;20.03;100.00
78845;BME280;68195;50.854;2.860;2023-09-08T04:18:36;101461.09;;;20.07;100.00
78845;BME280;68195;50.854;2.860;2023-09-08T04:21:06;101413.00;;;19.78;100.00
78845;BME280;68195;50.854;2.860;2023-09-08T04:23:32;101455.91;;;20.05;100.00
78845;BME280;68195;50.854;2.860;2023-09-08T04:25:58;101402.53;;;19.76;100.00
78845;BME280;68195;50.854;2.860;2023-09-08T04:28:25;101407.59;;;19.79;100.00
78845;BME280;68195;50.854;2.860;2023-09-08T04:30:51;101457.97;;;20.13;100.00
78845;BME280;68195;50.854;2.860;2023-09-08T04:33:19;101432.78;;;19.96;100.00
78845;BME280;68195;50.854;2.860;2023-09-08T04:35:48;101413.34;;;19.84;100.00
78845;BME280;68195;50.854;2.860;2023-09-08T04:38:16;101407.47;;;19.81;100.00
78845;BME280;68195;50.854;2.860;2023-09-08T04:40:47;101455.66;;;20.08;100.00
78845;BME280;68195;50.854;2.860;2023-09-08T04:43:12;101425.28;;;19.90;100.00
78845;BME280;68195;50.854;2.860;2023-09-08T04:45:40;101444.69;;;20.02;100.00
78845;BME280;68195;50.854;2.860;2023-09-08T04:48:08;101466.63;;;20.04;100.00
78845;BME280;68195;50.854;2.860;2023-09-08T04:50:33;101420.38;;;19.74;100.00
78845;BME280;68195;50.854;2.860;2023-09-08T04:53:00;101470.13;;;20.04;100.00
78845;BME280;68195;50.854;2.860;2023-09-08T04:55:27;101472.66;;;20.06;100.00
78845;BME280;68195;50.854;2.860;2023-09-08T04:57:55;101407.56;;;19.68;100.00
78845;BME280;68195;50.854;2.860;2023-09-08T05:00:26;101471.09;;;20.03;100.00
78845;BME280;68195;50.854;2.860;2023-09-08T05:02:55;101468.81;;;19.99;100.00
78845;BME280;68195;50.854;2.860;2023-09-08T05:05:23;101445.31;;;19.83;100.00
78845;BME280;68195;50.854;2.860;2023-09-08T05:07:48;101458.06;;;19.89;100.00
78845;BME280;68195;50.854;2.860;2023-09-08T05:10:18;101422.84;;;19.64;100.00
78845;BME280;68195;50.854;2.860;2023-09-08T05:12:51;101487.47;;;19.97;100.00
78845;BME280;68195;50.854;2.860;2023-09-08T05:15:21;101445.50;;;19.68;100.00
78845;BME280;68195;50.854;2.860;2023-09-08T05:17:49;101490.38;;;19.94;100.00
78845;BME280;68195;50.854;2.860;2023-09-08T05:20:19;101430.16;;;19.50;100.00
78845;BME280;68195;50.854;2.860;2023-09-08T05:22:44;101439.09;;;19.60;100.00
78845;BME280;68195;50.854;2.860;2023-09-08T05:25:15;101501.94;;;19.93;100.00
78845;BME280;68195;50.854;2.860;2023-09-08T05:27:43;101454.25;;;19.58;100.00
78845;BME280;68195;50.854;2.860;2023-09-08T05:30:11;101439.56;;;19.54;100.00
78845;BME280;68195;50.854;2.860;2023-09-08T05:32:36;101502.44;;;19.87;100.00
78845;BME280;68195;50.854;2.860;2023-09-08T05:35:07;101503.38;;;19.86;100.00
78845;BME280;68195;50.854;2.860;2023-09-08T05:37:32;101458.00;;;19.55;100.00
78845;BME280;68195;50.854;2.860;2023-09-08T05:39:58;101503.34;;;19.75;100.00
78845;BME280;68195;50.854;2.860;2023-09-08T05:42:26;101439.38;;;19.33;100.00
78845;BME280;68195;50.854;2.860;2023-09-08T05:44:51;101520.94;;;19.76;100.00
78845;BME280;68195;50.854;2.860;2023-09-08T05:47:19;101526.69;;;19.70;100.00
78845;BME280;68195;50.854;2.860;2023-09-08T05:49:47;101480.00;;;19.44;100.00
78845;BME280;68195;50.854;2.860;2023-09-08T05:52:15;101503.41;;;19.62;100.00
78845;BME280;68195;50.854;2.860;2023-09-08T05:54:42;101488.22;;;19.53;100.00
78845;BME280;68195;50.854;2.860;2023-09-08T05:57:10;101516.97;;;19.70;100.00
78845;BME280;68195;50.854;2.860;2023-09-08T05:59:37;101520.72;;;19.79;100.00
78845;BME280;68195;50.854;2.860;2023-09-08T06:02:03;101470.63;;;19.52;100.00
78845;BME280;68195;50.854;2.860;2023-09-08T06:04:31;101450.50;;;19.38;100.00
78845;BME280;68195;50.854;2.860;2023-09-08T06:06:58;101503.56;;;19.72;100.00
78845;BME280;68195;50.854;2.860;2023-09-08T06:09:29;101514.34;;;19.81;100.00
78845;BME280;68195;50.854;2.860;2023-09-08T06:11:54;101497.38;;;19.60;100.00
78845;BME280;68195;50.854;2.860;2023-09-08T06:14:20;101529.28;;;19.58;100.00
78845;BME280;68195;50.854;2.860;2023-09-08T06:16:47;101493.09;;;19.35;100.00
78845;BME280;68195;50.854;2.860;2023-09-08T06:19:13;101494.06;;;19.34;100.00
78845;BME280;68195;50.854;2.860;2023-09-08T06:21:38;101498.91;;;19.40;100.00
78845;BME280;68195;50.854;2.860;2023-09-08T06:24:06;101513.53;;;19.57;100.00
78845;BME280;68195;50.854;2.860;2023-09-08T06:26:34;101514.38;;;19.68;100.00
78845;BME280;68195;50.854;2.860;2023-09-08T06:29:02;101528.31;;;19.83;100.00
78845;BME280;68195;50.854;2.860;2023-09-08T06:31:28;101519.94;;;19.65;100.00
78845;BME280;68195;50.854;2.860;2023-09-08T06:33:53;101531.13;;;19.69;100.00
78845;BME280;68195;50.854;2.860;2023-09-08T06:36:21;101533.28;;;19.64;100.00
78845;BME280;68195;50.854;2.860;2023-09-08T06:38:46;101538.03;;;19.47;100.00
78845;BME280;68195;50.854;2.860;2023-09-08T06:41:12;101526.34;;;19.39;100.00
78845;BME280;68195;50.854;2.860;2023-09-08T06:43:40;101542.84;;;19.42;100.00
78845;BME280;68195;50.854;2.860;2023-09-08T06:46:07;101532.16;;;19.44;100.00
78845;BME280;68195;50.854;2.860;2023-09-08T06:48:35;101497.81;;;19.42;100.00
78845;BME280;68195;50.854;2.860;2023-09-08T06:51:01;101532.78;;;19.83;100.00
78845;BME280;68195;50.854;2.860;2023-09-08T06:53:26;101542.06;;;20.00;100.00
78845;BME280;68195;50.854;2.860;2023-09-08T06:55:51;101533.28;;;20.11;100.00
78845;BME280;68195;50.854;2.860;2023-09-08T06:58:17;101513.28;;;20.06;100.00
78845;BME280;68195;50.854;2.860;2023-09-08T07:00:42;101536.78;;;20.34;100.00
78845;BME280;68195;50.854;2.860;2023-09-08T07:03:08;101516.41;;;20.34;100.00
78845;BME280;68195;50.854;2.860;2023-09-08T07:05:39;101534.47;;;20.52;100.00
78845;BME280;68195;50.854;2.860;2023-09-08T07:08:07;101537.41;;;20.60;100.00
78845;BME280;68195;50.854;2.860;2023-09-08T07:10:34;101487.13;;;20.36;100.00
78845;BME280;68195;50.854;2.860;2023-09-08T07:13:00;101529.94;;;20.65;100.00
78845;BME280;68195;50.854;2.860;2023-09-08T07:15:28;101511.72;;;20.60;100.00
78845;BME280;68195;50.854;2.860;2023-09-08T07:17:53;101531.81;;;20.85;100.00
78845;BME280;68195;50.854;2.860;2023-09-08T07:20:18;101542.78;;;20.92;100.00
78845;BME280;68195;50.854;2.860;2023-09-08T07:22:47;101544.56;;;21.03;100.00
78845;BME280;68195;50.854;2.860;2023-09-08T07:25:14;101516.94;;;20.94;100.00
78845;BME280;68195;50.854;2.860;2023-09-08T07:27:42;101543.19;;;21.20;100.00
78845;BME280;68195;50.854;2.860;2023-09-08T07:30:10;101543.31;;;21.18;100.00
78845;BME280;68195;50.854;2.860;2023-09-08T07:32:35;101543.75;;;21.35;100.00
78845;BME280;68195;50.854;2.860;2023-09-08T07:35:06;101540.69;;;21.39;100.00
78845;BME280;68195;50.854;2.860;2023-09-08T07:37:39;101542.28;;;21.42;100.00
78845;BME280;68195;50.854;2.860;2023-09-08T07:40:06;101531.19;;;21.37;100.00
78845;BME280;68195;50.854;2.860;2023-09-08T07:42:36;101512.69;;;21.35;100.00
78845;BME280;68195;50.854;2.860;2023-09-08T07:45:04;101541.88;;;21.58;100.00
78845;BME280;68195;50.854;2.860;2023-09-08T07:47:32;101532.59;;;21.73;100.00
78845;BME280;68195;50.854;2.860;2023-09-08T07:50:18;101540.41;;;21.75;100.00
78845;BME280;68195;50.854;2.860;2023-09-08T07:52:45;101500.97;;;21.49;100.00
78845;BME280;68195;50.854;2.860;2023-09-08T07:55:10;101541.81;;;21.90;100.00
78845;BME280;68195;50.854;2.860;2023-09-08T07:57:40;101524.47;;;21.75;100.00
78845;BME280;68195;50.854;2.860;2023-09-08T08:00:07;101536.53;;;21.79;100.00
78845;BME280;68195;50.854;2.860;2023-09-08T08:02:36;101533.16;;;21.98;100.00
78845;BME280;68195;50.854;2.860;2023-09-08T08:05:03;101520.13;;;21.95;100.00
78845;BME280;68195;50.854;2.860;2023-09-08T08:07:29;101537.34;;;22.21;100.00
78845;BME280;68195;50.854;2.860;2023-09-08T08:09:58;101530.34;;;22.20;100.00
78845;BME280;68195;50.854;2.860;2023-09-08T08:12:23;101541.75;;;22.32;100.00
78845;BME280;68195;50.854;2.860;2023-09-08T08:14:48;101538.03;;;22.54;100.00
78845;BME280;68195;50.854;2.860;2023-09-08T08:17:16;101509.72;;;22.43;100.00
78845;BME280;68195;50.854;2.860;2023-09-08T08:19:43;101550.44;;;22.75;100.00
78845;BME280;68195;50.854;2.860;2023-09-08T08:22:08;101536.59;;;22.81;100.00
78845;BME280;68195;50.854;2.860;2023-09-08T08:24:34;101547.38;;;22.89;100.00
78845;BME280;68195;50.854;2.860;2023-09-08T08:26:59;101536.50;;;23.02;100.00
78845;BME280;68195;50.854;2.860;2023-09-08T08:29:28;101558.81;;;23.30;100.00
78845;BME280;68195;50.854;2.860;2023-09-08T08:31:56;101547.44;;;23.28;100.00
78845;BME280;68195;50.854;2.860;2023-09-08T08:34:24;101531.59;;;23.17;100.00
78845;BME280;68195;50.854;2.860;2023-09-08T08:36:49;101577.75;;;23.56;100.00
78845;BME280;68195;50.854;2.860;2023-09-08T08:39:17;101573.56;;;23.63;100.00
78845;BME280;68195;50.854;2.860;2023-09-08T08:41:44;101578.31;;;23.60;100.00
78845;BME280;68195;50.854;2.860;2023-09-08T08:44:10;101583.66;;;23.89;100.00
78845;BME280;68195;50.854;2.860;2023-09-08T08:46:38;101587.69;;;24.03;100.00
78845;BME280;68195;50.854;2.860;2023-09-08T08:49:04;101570.16;;;24.00;100.00
78845;BME280;68195;50.854;2.860;2023-09-08T08:51:34;101587.91;;;24.29;100.00
78845;BME280;68195;50.854;2.860;2023-09-08T08:54:01;101582.31;;;24.22;100.00
78845;BME280;68195;50.854;2.860;2023-09-08T08:56:30;101589.25;;;24.52;100.00
78845;BME280;68195;50.854;2.860;2023-09-08T08:59:03;101578.81;;;24.87;100.00
78845;BME280;68195;50.854;2.860;2023-09-08T09:01:28;101546.69;;;24.41;100.00
78845;BME280;68195;50.854;2.860;2023-09-08T09:03:56;101572.94;;;24.55;100.00
78845;BME280;68195;50.854;2.860;2023-09-08T09:06:24;101565.25;;;24.70;100.00
78845;BME280;68195;50.854;2.860;2023-09-08T09:08:52;101586.16;;;24.85;100.00
78845;BME280;68195;50.854;2.860;2023-09-08T09:11:18;101582.41;;;24.95;100.00
78845;BME280;68195;50.854;2.860;2023-09-08T09:13:43;101557.59;;;24.85;100.00
78845;BME280;68195;50.854;2.860;2023-09-08T09:16:09;101579.19;;;24.92;100.00
78845;BME280;68195;50.854;2.860;2023-09-08T09:18:58;101580.09;;;24.83;100.00
78845;BME280;68195;50.854;2.860;2023-09-08T09:21:41;101582.59;;;25.12;100.00
78845;BME280;68195;50.854;2.860;2023-09-08T09:24:07;101588.81;;;25.30;100.00
78845;BME280;68195;50.854;2.860;2023-09-08T09:26:32;101551.38;;;25.30;100.00
78845;BME280;68195;50.854;2.860;2023-09-08T09:28:58;101581.53;;;25.58;100.00
78845;BME280;68195;50.854;2.860;2023-09-08T09:31:25;101563.13;;;25.37;100.00
78845;BME280;68195;50.854;2.860;2023-09-08T09:34:02;101578.69;;;25.78;100.00
78845;BME280;68195;50.854;2.860;2023-09-08T09:36:30;101584.81;;;25.88;100.00
78845;BME280;68195;50.854;2.860;2023-09-08T09:39:00;101579.06;;;26.01;100.00
78845;BME280;68195;50.854;2.860;2023-09-08T09:41:27;101574.94;;;25.89;100.00
78845;BME280;68195;50.854;2.860;2023-09-08T09:43:55;101551.97;;;26.04;100.00
78845;BME280;68195;50.854;2.860;2023-09-08T09:46:21;101580.88;;;26.27;100.00
78845;BME280;68195;50.854;2.860;2023-09-08T09:48:52;101568.03;;;26.04;100.00
78845;BME280;68195;50.854;2.860;2023-09-08T09:51:22;101584.94;;;26.31;100.00
78845;BME280;68195;50.854;2.860;2023-09-08T09:53:50;101576.66;;;26.16;94.99
78845;BME280;68195;50.854;2.860;2023-09-08T09:56:20;101573.22;;;26.06;96.68
78845;BME280;68195;50.854;2.860;2023-09-08T09:58:48;101530.22;;;25.81;94.27
78845;BME280;68195;50.854;2.860;2023-09-08T10:01:16;101552.13;;;26.03;95.35
78845;BME280;68195;50.854;2.860;2023-09-08T10:03:42;101581.88;;;26.26;96.67
78845;BME280;68195;50.854;2.860;2023-09-08T10:06:08;101546.31;;;26.15;94.81
78845;BME280;68195;50.854;2.860;2023-09-08T10:08:37;101587.75;;;26.29;94.42
78845;BME280;68195;50.854;2.860;2023-09-08T10:11:06;101550.06;;;26.23;95.38
78845;BME280;68195;50.854;2.860;2023-09-08T10:13:36;101522.66;;;26.29;97.71
78845;BME280;68195;50.854;2.860;2023-09-08T10:16:04;101580.50;;;26.98;98.80
78845;BME280;68195;50.854;2.860;2023-09-08T10:18:35;101586.25;;;27.20;95.80
78845;BME280;68195;50.854;2.860;2023-09-08T10:21:04;101582.53;;;27.05;92.27
78845;BME280;68195;50.854;2.860;2023-09-08T10:23:39;101578.16;;;27.04;93.52
78845;BME280;68195;50.854;2.860;2023-09-08T10:26:11;101577.81;;;26.90;92.75
78845;BME280;68195;50.854;2.860;2023-09-08T10:28:39;101576.09;;;27.24;96.94
78845;BME280;68195;50.854;2.860;2023-09-08T10:31:07;101579.41;;;27.26;90.39
78845;BME280;68195;50.854;2.860;2023-09-08T10:33:34;101519.53;;;27.17;90.62
78845;BME280;68195;50.854;2.860;2023-09-08T10:36:03;101556.75;;;27.12;83.94
78845;BME280;68195;50.854;2.860;2023-09-08T10:38:35;101581.00;;;26.94;83.83
78845;BME280;68195;50.854;2.860;2023-09-08T10:46:10;101555.28;;;27.50;90.38
78845;BME280;68195;50.854;2.860;2023-09-08T10:48:43;101577.91;;;27.80;90.54
78845;BME280;68195;50.854;2.860;2023-09-08T10:51:17;101568.22;;;27.30;88.15
78845;BME280;68195;50.854;2.860;2023-09-08T10:53:46;101583.78;;;27.35;87.55
78845;BME280;68195;50.854;2.860;2023-09-08T10:56:11;101558.72;;;27.01;85.47
78845;BME280;68195;50.854;2.860;2023-09-08T10:58:39;101518.69;;;26.92;88.07
78845;BME280;68195;50.854;2.860;2023-09-08T11:01:21;101577.00;;;27.14;84.12
78845;BME280;68195;50.854;2.860;2023-09-08T11:03:52;101551.69;;;26.92;84.23
78845;BME280;68195;50.854;2.860;2023-09-08T11:06:21;101538.22;;;26.76;85.64
78845;BME280;68195;50.854;2.860;2023-09-08T11:08:47;101579.50;;;26.99;89.27
78845;BME280;68195;50.854;2.860;2023-09-08T11:11:18;101561.91;;;26.97;86.43
78845;BME280;68195;50.854;2.860;2023-09-08T11:13:43;101575.00;;;27.08;82.29
78845;BME280;68195;50.854;2.860;2023-09-08T11:16:13;101550.03;;;26.91;83.30
78845;BME280;68195;50.854;2.860;2023-09-08T11:18:39;101553.22;;;27.03;82.45
78845;BME280;68195;50.854;2.860;2023-09-08T11:21:08;101560.41;;;26.94;79.15
78845;BME280;68195;50.854;2.860;2023-09-08T11:23:37;101554.84;;;26.88;81.27
78845;BME280;68195;50.854;2.860;2023-09-08T11:26:02;101555.03;;;26.94;81.82
78845;BME280;68195;50.854;2.860;2023-09-08T11:28:31;101548.00;;;26.85;81.60
78845;BME280;68195;50.854;2.860;2023-09-08T11:30:57;101560.53;;;26.76;79.02
78845;BME280;68195;50.854;2.860;2023-09-08T11:33:23;101588.25;;;27.18;82.33
78845;BME280;68195;50.854;2.860;2023-09-08T11:35:51;101589.16;;;27.35;84.25
78845;BME280;68195;50.854;2.860;2023-09-08T11:38:18;101587.66;;;27.32;81.48
78845;BME280;68195;50.854;2.860;2023-09-08T11:40:44;101594.53;;;27.43;82.01
78845;BME280;68195;50.854;2.860;2023-09-08T11:43:11;101585.97;;;27.64;83.49
78845;BME280;68195;50.854;2.860;2023-09-08T11:45:37;101589.47;;;27.81;82.49
78845;BME280;68195;50.854;2.860;2023-09-08T11:48:05;101586.00;;;27.48;76.04
78845;BME280;68195;50.854;2.860;2023-09-08T11:50:33;101585.63;;;27.51;79.92
78845;BME280;68195;50.854;2.860;2023-09-08T11:52:58;101580.06;;;27.19;74.60
78845;BME280;68195;50.854;2.860;2023-09-08T11:55:30;101585.53;;;27.01;74.81
78845;BME280;68195;50.854;2.860;2023-09-08T11:57:56;101568.28;;;26.96;76.53
78845;BME280;68195;50.854;2.860;2023-09-08T12:00:29;101566.47;;;27.05;76.92
78845;BME280;68195;50.854;2.860;2023-09-08T12:02:55;101586.91;;;27.14;77.49
78845;BME280;68195;50.854;2.860;2023-09-08T12:05:34;101579.19;;;27.03;79.31
78845;BME280;68195;50.854;2.860;2023-09-08T12:07:59;101574.63;;;26.95;77.98
78845;BME280;68195;50.854;2.860;2023-09-08T12:10:25;101581.56;;;27.14;83.30
78845;BME280;68195;50.854;2.860;2023-09-08T12:12:54;101582.56;;;27.21;81.26
78845;BME280;68195;50.854;2.860;2023-09-08T12:15:39;101572.72;;;27.22;82.31
78845;BME280;68195;50.854;2.860;2023-09-08T12:18:07;101578.59;;;27.41;80.57
78845;BME280;68195;50.854;2.860;2023-09-08T12:20:34;101582.09;;;27.34;81.48
78845;BME280;68195;50.854;2.860;2023-09-08T12:23:02;101554.38;;;27.00;80.45
78845;BME280;68195;50.854;2.860;2023-09-08T12:25:30;101579.88;;;27.13;79.80
78845;BME280;68195;50.854;2.860;2023-09-08T12:28:04;101561.09;;;27.05;77.23
78845;BME280;68195;50.854;2.860;2023-09-08T12:30:31;101557.25;;;27.07;80.01
78845;BME280;68195;50.854;2.860;2023-09-08T12:33:01;101576.00;;;27.07;78.54
78845;BME280;68195;50.854;2.860;2023-09-08T12:35:29;101572.50;;;27.15;76.50
78845;BME280;68195;50.854;2.860;2023-09-08T12:38:05;101578.19;;;27.12;76.32
78845;BME280;68195;50.854;2.860;2023-09-08T12:40:34;101550.56;;;27.11;76.41
78845;BME280;68195;50.854;2.860;2023-09-08T12:43:02;101525.22;;;27.06;74.47
78845;BME280;68195;50.854;2.860;2023-09-08T12:45:28;101543.03;;;27.23;76.18
78845;BME280;68195;50.854;2.860;2023-09-08T12:47:59;101551.41;;;27.20;75.24
78845;BME280;68195;50.854;2.860;2023-09-08T12:50:27;101575.91;;;27.33;75.99
78845;BME280;68195;50.854;2.860;2023-09-08T12:52:53;101508.13;;;26.98;73.50
78845;BME280;68195;50.854;2.860;2023-09-08T12:55:21;101570.19;;;27.36;70.99
78845;BME280;68195;50.854;2.860;2023-09-08T12:57:50;101543.34;;;27.20;71.08